sensor_id;sensor_type;location;lat;lon;timestamp;pressure;altitude;pressure_sealevel;temperature;humidity
17311;BME280;8773;43.300;0.394;2023-03-03T00:00:03;100239.22;;;7.31;56.59
17311;BME280;8773;43.300;0.394;2023-03-03T00:02:33;100242.13;;;7.28;56.38
17311;BME280;8773;43.300;0.394;2023-03-03T00:05:01;100244.69;;;7.19;57.83
17311;BME280;8773;43.300;0.394;2023-03-03T00:07:30;100242.28;;;7.16;57.96
17311;BME280;8773;43.300;0.394;2023-03-03T00:09:58;100244.09;;;7.04;57.93
17311;BME280;8773;43.300;0.394;2023-03-03T00:12:28;100246.38;;;7.08;58.44
17311;BME280;8773;43.300;0.394;2023-03-03T00:14:57;100242.53;;;7.13;58.48
17311;BME280;8773;43.300;0.394;2023-03-03T00:17:27;100239.84;;;7.24;58.38
17311;BME280;8773;43.300;0.394;2023-03-03T00:19:56;100240.78;;;7.23;58.45
17311;BME280;8773;43.300;0.394;2023-03-03T00:22:28;100235.97;;;7.28;58.12
17311;BME280;8773;43.300;0.394;2023-03-03T00:24:59;100236.69;;;7.30;57.77
17311;BME280;8773;43.300;0.394;2023-03-03T00:27:29;100227.53;;;7.23;58.67
17311;BME280;8773;43.300;0.394;2023-03-03T00:29:59;100230.41;;;7.31;58.14
17311;BME280;8773;43.300;0.394;2023-03-03T00:32:30;100219.47;;;7.13;59.73
17311;BME280;8773;43.300;0.394;2023-03-03T00:35:21;100229.97;;;7.15;59.89
17311;BME280;8773;43.300;0.394;2023-03-03T00:37:53;100226.94;;;7.08;60.43
17311;BME280;8773;43.300;0.394;2023-03-03T00:40:23;100227.06;;;6.84;61.14
17311;BME280;8773;43.300;0.394;2023-03-03T00:42:53;100228.97;;;6.82;61.48
17311;BME280;8773;43.300;0.394;2023-03-03T00:45:36;100220.53;;;6.88;62.04
17311;BME280;8773;43.300;0.394;2023-03-03T00:48:20;100223.81;;;6.92;61.88
17311;BME280;8773;43.300;0.394;2023-03-03T00:50:50;100227.06;;;7.06;62.10
17311;BME280;8773;43.300;0.394;2023-03-03T00:53:20;100225.88;;;7.10;61.07
17311;BME280;8773;43.300;0.394;2023-03-03T00:55:50;100229.84;;;7.16;62.20
17311;BME280;8773;43.300;0.394;2023-03-03T00:58:21;100229.97;;;7.15;61.44
17311;BME280;8773;43.300;0.394;2023-03-03T01:00:51;100218.88;;;7.09;62.08
17311;BME280;8773;43.300;0.394;2023-03-03T01:03:22;100223.22;;;7.10;61.32
17311;BME280;8773;43.300;0.394;2023-03-03T01:05:52;100225.50;;;7.15;62.13
17311;BME280;8773;43.300;0.394;2023-03-03T01:08:20;100226.34;;;7.16;61.51
17311;BME280;8773;43.300;0.394;2023-03-03T01:10:50;100220.63;;;7.20;62.11
17311;BME280;8773;43.300;0.394;2023-03-03T01:13:20;100232.81;;;7.23;61.84
17311;BME280;8773;43.300;0.394;2023-03-03T01:15:49;100223.28;;;7.20;61.82
17311;BME280;8773;43.300;0.394;2023-03-03T01:18:18;100227.53;;;7.23;61.49
17311;BME280;8773;43.300;0.394;2023-03-03T01:20:46;100221.41;;;7.11;61.86
17311;BME280;8773;43.300;0.394;2023-03-03T01:23:16;100227.06;;;6.95;62.49
17311;BME280;8773;43.300;0.394;2023-03-03T01:25:44;100206.09;;;6.70;62.67
17311;BME280;8773;43.300;0.394;2023-03-03T01:28:12;100227.44;;;6.68;63.86
17311;BME280;8773;43.300;0.394;2023-03-03T01:30:40;100216.47;;;6.73;63.87
17311;BME280;8773;43.300;0.394;2023-03-03T01:33:08;100213.44;;;6.66;63.23
17311;BME280;8773;43.300;0.394;2023-03-03T01:35:36;100233.56;;;6.80;63.63
17311;BME280;8773;43.300;0.394;2023-03-03T01:38:06;100228.50;;;6.77;63.26
17311;BME280;8773;43.300;0.394;2023-03-03T01:40:36;100224.66;;;6.70;63.59
17311;BME280;8773;43.300;0.394;2023-03-03T01:43:04;100231.41;;;6.63;64.38
17311;BME280;8773;43.300;0.394;2023-03-03T01:45:44;100230.28;;;6.54;64.84
17311;BME280;8773;43.300;0.394;2023-03-03T01:48:33;100230.91;;;6.58;64.95
17311;BME280;8773;43.300;0.394;2023-03-03T01:51:08;100228.59;;;6.53;65.11
17311;BME280;8773;43.300;0.394;2023-03-03T01:53:43;100225.47;;;6.59;64.19
17311;BME280;8773;43.300;0.394;2023-03-03T01:56:13;100223.69;;;6.60;64.87
17311;BME280;8773;43.300;0.394;2023-03-03T01:58:44;100216.59;;;6.36;65.51
17311;BME280;8773;43.300;0.394;2023-03-03T02:01:15;100221.66;;;6.39;65.36
17311;BME280;8773;43.300;0.394;2023-03-03T02:03:46;100221.97;;;6.59;65.24
17311;BME280;8773;43.300;0.394;2023-03-03T02:06:15;100217.53;;;6.70;64.49
17311;BME280;8773;43.300;0.394;2023-03-03T02:08:50;100214.88;;;6.70;64.32
17311;BME280;8773;43.300;0.394;2023-03-03T02:11:22;100210.91;;;6.76;65.09
17311;BME280;8773;43.300;0.394;2023-03-03T02:13:50;100222.72;;;6.83;63.85
17311;BME280;8773;43.300;0.394;2023-03-03T02:16:18;100211.38;;;6.81;64.66
17311;BME280;8773;43.300;0.394;2023-03-03T02:18:46;100207.16;;;6.56;66.01
17311;BME280;8773;43.300;0.394;2023-03-03T02:21:16;100202.91;;;6.54;65.04
17311;BME280;8773;43.300;0.394;2023-03-03T02:23:49;100194.13;;;6.64;65.06
17311;BME280;8773;43.300;0.394;2023-03-03T02:26:23;100190.16;;;6.70;65.75
17311;BME280;8773;43.300;0.394;2023-03-03T02:28:51;100202.94;;;6.76;65.55
17311;BME280;8773;43.300;0.394;2023-03-03T02:31:23;100190.38;;;6.78;64.87
17311;BME280;8773;43.300;0.394;2023-03-03T02:33:52;100199.66;;;6.84;65.02
17311;BME280;8773;43.300;0.394;2023-03-03T02:36:23;100198.22;;;6.80;64.43
17311;BME280;8773;43.300;0.394;2023-03-03T02:38:56;100186.53;;;6.82;64.29
17311;BME280;8773;43.300;0.394;2023-03-03T02:41:32;100188.94;;;6.85;63.98
17311;BME280;8773;43.300;0.394;2023-03-03T02:44:03;100185.44;;;6.85;64.10
17311;BME280;8773;43.300;0.394;2023-03-03T02:46:34;100195.94;;;6.86;64.46
17311;BME280;8773;43.300;0.394;2023-03-03T02:49:04;100189.41;;;6.90;64.62
17311;BME280;8773;43.300;0.394;2023-03-03T02:51:32;100195.69;;;6.89;64.41
17311;BME280;8773;43.300;0.394;2023-03-03T02:54:01;100185.44;;;6.85;64.02
17311;BME280;8773;43.300;0.394;2023-03-03T02:56:31;100183.25;;;6.90;63.58
17311;BME280;8773;43.300;0.394;2023-03-03T02:59:00;100179.28;;;6.84;63.79
17311;BME280;8773;43.300;0.394;2023-03-03T03:01:28;100172.56;;;6.69;64.80
17311;BME280;8773;43.300;0.394;2023-03-03T03:04:05;100177.72;;;6.48;65.90
17311;BME280;8773;43.300;0.394;2023-03-03T03:06:35;100176.88;;;6.48;66.46
17311;BME280;8773;43.300;0.394;2023-03-03T03:09:05;100168.41;;;6.42;66.89
17311;BME280;8773;43.300;0.394;2023-03-03T03:11:35;100168.06;;;6.47;66.98
17311;BME280;8773;43.300;0.394;2023-03-03T03:14:05;100166.19;;;6.36;67.45
17311;BME280;8773;43.300;0.394;2023-03-03T03:16:34;100168.63;;;6.39;67.21
17311;BME280;8773;43.300;0.394;2023-03-03T03:19:03;100165.34;;;6.36;67.25
17311;BME280;8773;43.300;0.394;2023-03-03T03:21:32;100166.94;;;6.38;67.51
17311;BME280;8773;43.300;0.394;2023-03-03T03:24:00;100168.50;;;6.30;67.58
17311;BME280;8773;43.300;0.394;2023-03-03T03:26:28;100175.97;;;6.25;67.60
17311;BME280;8773;43.300;0.394;2023-03-03T03:28:57;100172.31;;;6.15;68.00
17311;BME280;8773;43.300;0.394;2023-03-03T03:31:25;100164.94;;;6.07;68.52
17311;BME280;8773;43.300;0.394;2023-03-03T03:33:54;100169.84;;;5.89;68.68
17311;BME280;8773;43.300;0.394;2023-03-03T03:36:22;100174.31;;;5.89;68.82
17311;BME280;8773;43.300;0.394;2023-03-03T03:38:50;100179.34;;;5.81;69.19
17311;BME280;8773;43.300;0.394;2023-03-03T03:41:18;100177.19;;;5.86;69.44
17311;BME280;8773;43.300;0.394;2023-03-03T03:43:46;100182.59;;;5.84;68.94
17311;BME280;8773;43.300;0.394;2023-03-03T03:46:15;100176.00;;;6.01;68.99
17311;BME280;8773;43.300;0.394;2023-03-03T03:48:44;100170.91;;;6.22;67.75
17311;BME280;8773;43.300;0.394;2023-03-03T03:51:12;100169.69;;;6.37;67.92
17311;BME280;8773;43.300;0.394;2023-03-03T03:53:40;100173.81;;;6.41;67.34
17311;BME280;8773;43.300;0.394;2023-03-03T03:56:08;100166.75;;;6.53;66.93
17311;BME280;8773;43.300;0.394;2023-03-03T03:58:36;100168.91;;;6.59;66.64
17311;BME280;8773;43.300;0.394;2023-03-03T04:01:05;100169.53;;;6.62;66.63
17311;BME280;8773;43.300;0.394;2023-03-03T04:03:35;100161.22;;;6.67;65.62
17311;BME280;8773;43.300;0.394;2023-03-03T04:06:03;100161.31;;;6.54;65.88
17311;BME280;8773;43.300;0.394;2023-03-03T04:08:31;100167.34;;;6.56;66.04
17311;BME280;8773;43.300;0.394;2023-03-03T04:10:59;100162.22;;;6.42;67.46
17311;BME280;8773;43.300;0.394;2023-03-03T04:13:28;100159.81;;;6.39;66.79
17311;BME280;8773;43.300;0.394;2023-03-03T04:15:57;100168.75;;;6.27;67.53
17311;BME280;8773;43.300;0.394;2023-03-03T04:18:26;100163.41;;;6.16;67.44
17311;BME280;8773;43.300;0.394;2023-03-03T04:20:55;100165.97;;;6.28;66.83
17311;BME280;8773;43.300;0.394;2023-03-03T04:23:23;100167.44;;;6.32;66.96
17311;BME280;8773;43.300;0.394;2023-03-03T04:25:51;100174.28;;;6.35;66.90
17311;BME280;8773;43.300;0.394;2023-03-03T04:28:19;100158.84;;;6.18;66.86
17311;BME280;8773;43.300;0.394;2023-03-03T04:30:51;100171.03;;;6.31;67.74
17311;BME280;8773;43.300;0.394;2023-03-03T04:33:19;100166.41;;;6.11;67.49
17311;BME280;8773;43.300;0.394;2023-03-03T04:35:47;100169.00;;;5.89;68.69
17311;BME280;8773;43.300;0.394;2023-03-03T04:38:16;100169.53;;;6.05;67.87
17311;BME280;8773;43.300;0.394;2023-03-03T04:40:44;100165.13;;;6.28;67.63
17311;BME280;8773;43.300;0.394;2023-03-03T04:43:13;100170.78;;;6.34;67.22
17311;BME280;8773;43.300;0.394;2023-03-03T04:45:41;100162.22;;;6.20;66.62
17311;BME280;8773;43.300;0.394;2023-03-03T04:48:10;100168.38;;;6.20;67.00
17311;BME280;8773;43.300;0.394;2023-03-03T04:50:38;100171.28;;;6.28;67.79
17311;BME280;8773;43.300;0.394;2023-03-03T04:53:06;100155.00;;;6.22;67.41
17311;BME280;8773;43.300;0.394;2023-03-03T04:55:36;100167.09;;;6.48;66.06
17311;BME280;8773;43.300;0.394;2023-03-03T04:58:04;100174.47;;;6.56;65.55
17311;BME280;8773;43.300;0.394;2023-03-03T05:00:33;100175.44;;;6.66;65.48
17311;BME280;8773;43.300;0.394;2023-03-03T05:03:01;100165.56;;;6.68;65.77
17311;BME280;8773;43.300;0.394;2023-03-03T05:05:29;100163.72;;;6.80;65.10
17311;BME280;8773;43.300;0.394;2023-03-03T05:07:57;100164.69;;;6.78;65.02
17311;BME280;8773;43.300;0.394;2023-03-03T05:10:25;100168.91;;;6.81;65.16
17311;BME280;8773;43.300;0.394;2023-03-03T05:12:55;100167.56;;;6.87;65.04
17311;BME280;8773;43.300;0.394;2023-03-03T05:15:23;100166.38;;;6.91;64.19
17311;BME280;8773;43.300;0.394;2023-03-03T05:17:51;100160.94;;;6.92;64.58
17311;BME280;8773;43.300;0.394;2023-03-03T05:20:22;100148.75;;;6.78;64.81
17311;BME280;8773;43.300;0.394;2023-03-03T05:22:50;100168.78;;;6.94;64.99
17311;BME280;8773;43.300;0.394;2023-03-03T05:25:18;100173.00;;;6.96;64.90
17311;BME280;8773;43.300;0.394;2023-03-03T05:27:46;100171.31;;;6.95;64.09
17311;BME280;8773;43.300;0.394;2023-03-03T05:30:16;100171.06;;;6.98;64.77
17311;BME280;8773;43.300;0.394;2023-03-03T05:32:44;100169.16;;;7.00;64.48
17311;BME280;8773;43.300;0.394;2023-03-03T05:35:12;100173.59;;;7.00;64.63
17311;BME280;8773;43.300;0.394;2023-03-03T05:37:40;100165.78;;;6.98;64.76
17311;BME280;8773;43.300;0.394;2023-03-03T05:40:13;100169.16;;;7.00;63.48
17311;BME280;8773;43.300;0.394;2023-03-03T05:42:41;100169.50;;;6.96;64.24
17311;BME280;8773;43.300;0.394;2023-03-03T05:45:09;100164.31;;;6.83;65.10
17311;BME280;8773;43.300;0.394;2023-03-03T05:47:39;100160.72;;;6.84;65.32
17311;BME280;8773;43.300;0.394;2023-03-03T05:50:09;100169.16;;;6.78;65.49
17311;BME280;8773;43.300;0.394;2023-03-03T05:52:37;100167.38;;;6.67;66.26
17311;BME280;8773;43.300;0.394;2023-03-03T05:55:06;100170.84;;;6.57;66.57
17311;BME280;8773;43.300;0.394;2023-03-03T05:57:34;100172.06;;;6.64;66.59
17311;BME280;8773;43.300;0.394;2023-03-03T06:00:03;100178.22;;;6.75;65.20
17311;BME280;8773;43.300;0.394;2023-03-03T06:02:32;100172.75;;;6.77;65.46
17311;BME280;8773;43.300;0.394;2023-03-03T06:05:02;100173.25;;;6.82;65.14
17311;BME280;8773;43.300;0.394;2023-03-03T06:07:31;100174.81;;;6.85;65.58
17311;BME280;8773;43.300;0.394;2023-03-03T06:09:59;100167.72;;;6.74;65.46
17311;BME280;8773;43.300;0.394;2023-03-03T06:12:27;100170.84;;;6.68;65.82
17311;BME280;8773;43.300;0.394;2023-03-03T06:14:55;100175.41;;;6.77;65.04
17311;BME280;8773;43.300;0.394;2023-03-03T06:17:23;100176.16;;;6.79;65.77
17311;BME280;8773;43.300;0.394;2023-03-03T06:19:51;100173.97;;;6.84;64.44
17311;BME280;8773;43.300;0.394;2023-03-03T06:22:20;100181.47;;;6.90;64.55
17311;BME280;8773;43.300;0.394;2023-03-03T06:24:49;100173.25;;;6.93;64.72
17311;BME280;8773;43.300;0.394;2023-03-03T06:27:18;100176.25;;;6.89;64.59
17311;BME280;8773;43.300;0.394;2023-03-03T06:29:46;100179.75;;;6.89;65.14
17311;BME280;8773;43.300;0.394;2023-03-03T06:32:14;100179.53;;;6.92;65.14
17311;BME280;8773;43.300;0.394;2023-03-03T06:34:42;100182.19;;;6.92;64.04
17311;BME280;8773;43.300;0.394;2023-03-03T06:37:11;100185.78;;;6.91;64.31
17311;BME280;8773;43.300;0.394;2023-03-03T06:39:40;100187.97;;;6.97;64.46
17311;BME280;8773;43.300;0.394;2023-03-03T06:42:08;100179.03;;;6.98;64.22
17311;BME280;8773;43.300;0.394;2023-03-03T06:44:36;100184.47;;;6.97;63.84
17311;BME280;8773;43.300;0.394;2023-03-03T06:47:04;100185.06;;;7.00;64.50
17311;BME280;8773;43.300;0.394;2023-03-03T06:49:35;100187.59;;;7.02;64.61
17311;BME280;8773;43.300;0.394;2023-03-03T06:52:10;100192.78;;;7.03;63.43
17311;BME280;8773;43.300;0.394;2023-03-03T06:54:40;100192.06;;;7.01;64.36
17311;BME280;8773;43.300;0.394;2023-03-03T06:57:15;100189.66;;;6.98;63.79
17311;BME280;8773;43.300;0.394;2023-03-03T06:59:46;100198.84;;;7.05;63.73
17311;BME280;8773;43.300;0.394;2023-03-03T07:02:16;100200.41;;;7.08;63.78
17311;BME280;8773;43.300;0.394;2023-03-03T07:04:44;100203.06;;;7.08;64.71
17311;BME280;8773;43.300;0.394;2023-03-03T07:07:15;100204.88;;;7.07;63.97
17311;BME280;8773;43.300;0.394;2023-03-03T07:09:47;100208.59;;;7.05;64.85
17311;BME280;8773;43.300;0.394;2023-03-03T07:12:18;100218.88;;;6.98;64.82
17311;BME280;8773;43.300;0.394;2023-03-03T07:14:49;100214.03;;;7.03;64.26
17311;BME280;8773;43.300;0.394;2023-03-03T07:17:23;100214.88;;;7.04;64.79
17311;BME280;8773;43.300;0.394;2023-03-03T07:19:51;100219.94;;;7.07;65.01
17311;BME280;8773;43.300;0.394;2023-03-03T07:22:22;100218.97;;;7.08;64.49
17311;BME280;8773;43.300;0.394;2023-03-03T07:24:53;100230.81;;;7.15;64.60
17311;BME280;8773;43.300;0.394;2023-03-03T07:27:25;100225.72;;;7.23;64.76
17311;BME280;8773;43.300;0.394;2023-03-03T07:29:54;100225.34;;;7.28;63.96
17311;BME280;8773;43.300;0.394;2023-03-03T07:32:36;100237.78;;;7.38;63.64
17311;BME280;8773;43.300;0.394;2023-03-03T07:35:23;100240.06;;;7.43;64.33
17311;BME280;8773;43.300;0.394;2023-03-03T07:37:54;100238.00;;;7.47;64.25
17311;BME280;8773;43.300;0.394;2023-03-03T07:40:33;100240.78;;;7.45;64.36
17311;BME280;8773;43.300;0.394;2023-03-03T07:43:21;100247.91;;;7.22;63.98
17311;BME280;8773;43.300;0.394;2023-03-03T07:45:56;100247.34;;;7.19;63.22
17311;BME280;8773;43.300;0.394;2023-03-03T07:48:33;100252.03;;;7.26;63.67
17311;BME280;8773;43.300;0.394;2023-03-03T07:51:04;100254.59;;;7.17;63.55
17311;BME280;8773;43.300;0.394;2023-03-03T07:53:33;100249.00;;;7.31;63.37
17311;BME280;8773;43.300;0.394;2023-03-03T07:56:14;100257.91;;;7.52;62.94
17311;BME280;8773;43.300;0.394;2023-03-03T07:58:43;100258.28;;;7.59;62.66
17311;BME280;8773;43.300;0.394;2023-03-03T08:01:36;100259.19;;;7.69;62.66
17311;BME280;8773;43.300;0.394;2023-03-03T08:04:21;100262.50;;;7.61;61.36
17311;BME280;8773;43.300;0.394;2023-03-03T08:06:52;100263.97;;;7.43;61.94
17311;BME280;8773;43.300;0.394;2023-03-03T08:09:47;100271.22;;;7.41;62.92
17311;BME280;8773;43.300;0.394;2023-03-03T08:12:39;100271.94;;;7.54;62.34
17311;BME280;8773;43.300;0.394;2023-03-03T08:15:20;100267.75;;;7.72;62.16
17311;BME280;8773;43.300;0.394;2023-03-03T08:17:51;100274.28;;;7.80;61.29
17311;BME280;8773;43.300;0.394;2023-03-03T08:20:38;100281.53;;;7.77;61.45
17311;BME280;8773;43.300;0.394;2023-03-03T08:23:08;100273.16;;;7.93;61.65
17311;BME280;8773;43.300;0.394;2023-03-03T08:25:36;100279.00;;;8.08;61.33
17311;BME280;8773;43.300;0.394;2023-03-03T08:28:06;100276.63;;;8.05;60.96
17311;BME280;8773;43.300;0.394;2023-03-03T08:30:34;100281.47;;;8.00;61.27
17311;BME280;8773;43.300;0.394;2023-03-03T08:33:02;100280.44;;;8.12;60.33
17311;BME280;8773;43.300;0.394;2023-03-03T08:35:30;100271.84;;;8.20;60.22
17311;BME280;8773;43.300;0.394;2023-03-03T08:37:59;100285.63;;;8.14;60.00
17311;BME280;8773;43.300;0.394;2023-03-03T08:40:27;100284.06;;;8.11;60.68
17311;BME280;8773;43.300;0.394;2023-03-03T08:42:55;100281.88;;;8.16;59.69
17311;BME280;8773;43.300;0.394;2023-03-03T08:45:26;100285.75;;;8.12;60.03
17311;BME280;8773;43.300;0.394;2023-03-03T08:47:54;100286.69;;;8.33;59.97
17311;BME280;8773;43.300;0.394;2023-03-03T08:50:22;100287.22;;;8.48;59.24
17311;BME280;8773;43.300;0.394;2023-03-03T08:52:50;100287.22;;;8.48;58.98
17311;BME280;8773;43.300;0.394;2023-03-03T08:55:19;100281.47;;;8.53;59.12
17311;BME280;8773;43.300;0.394;2023-03-03T08:57:47;100287.47;;;8.45;58.51
17311;BME280;8773;43.300;0.394;2023-03-03T09:00:16;100286.75;;;8.64;59.26
17311;BME280;8773;43.300;0.394;2023-03-03T09:02:46;100282.78;;;8.79;58.72
17311;BME280;8773;43.300;0.394;2023-03-03T09:05:15;100287.84;;;8.82;57.71
17311;BME280;8773;43.300;0.394;2023-03-03T09:07:45;100291.25;;;8.84;57.19
17311;BME280;8773;43.300;0.394;2023-03-03T09:10:15;100279.94;;;8.92;57.50
17311;BME280;8773;43.300;0.394;2023-03-03T09:12:45;100288.66;;;9.03;57.93
17311;BME280;8773;43.300;0.394;2023-03-03T09:15:20;100279.63;;;9.16;57.24
17311;BME280;8773;43.300;0.394;2023-03-03T09:17:52;100267.34;;;9.03;56.78
17311;BME280;8773;43.300;0.394;2023-03-03T09:20:31;100286.19;;;9.12;56.39
17311;BME280;8773;43.300;0.394;2023-03-03T09:23:23;100282.16;;;8.96;57.28
17311;BME280;8773;43.300;0.394;2023-03-03T09:25:52;100284.59;;;9.30;57.33
17311;BME280;8773;43.300;0.394;2023-03-03T09:28:25;100281.53;;;9.44;56.28
17311;BME280;8773;43.300;0.394;2023-03-03T09:30:55;100277.59;;;9.38;57.06
17311;BME280;8773;43.300;0.394;2023-03-03T09:33:27;100283.22;;;9.45;56.54
17311;BME280;8773;43.300;0.394;2023-03-03T09:36:03;100282.03;;;9.68;56.33
17311;BME280;8773;43.300;0.394;2023-03-03T09:38:42;100277.69;;;9.67;55.68
17311;BME280;8773;43.300;0.394;2023-03-03T09:41:39;100283.66;;;9.50;56.62
17311;BME280;8773;43.300;0.394;2023-03-03T09:44:24;100279.56;;;9.46;56.51
17311;BME280;8773;43.300;0.394;2023-03-03T09:47:06;100283.44;;;9.23;55.91
17311;BME280;8773;43.300;0.394;2023-03-03T09:49:49;100278.09;;;9.23;56.13
17311;BME280;8773;43.300;0.394;2023-03-03T09:52:32;100291.81;;;9.18;56.49
17311;BME280;8773;43.300;0.394;2023-03-03T09:55:17;100285.22;;;9.13;56.77
17311;BME280;8773;43.300;0.394;2023-03-03T09:57:58;100287.34;;;9.19;56.11
17311;BME280;8773;43.300;0.394;2023-03-03T10:00:46;100293.94;;;8.94;56.65
17311;BME280;8773;43.300;0.394;2023-03-03T10:06:27;100293.78;;;9.16;56.58
17311;BME280;8773;43.300;0.394;2023-03-03T10:09:32;100290.03;;;8.98;56.49
17311;BME280;8773;43.300;0.394;2023-03-03T10:12:08;100287.06;;;9.22;56.33
17311;BME280;8773;43.300;0.394;2023-03-03T10:14:49;100286.78;;;8.94;57.09
17311;BME280;8773;43.300;0.394;2023-03-03T10:17:33;100288.84;;;9.12;56.05
17311;BME280;8773;43.300;0.394;2023-03-03T10:20:21;100284.81;;;9.57;56.48
17311;BME280;8773;43.300;0.394;2023-03-03T10:22:58;100292.88;;;9.86;54.86
17311;BME280;8773;43.300;0.394;2023-03-03T10:25:38;100285.50;;;10.19;54.02
17311;BME280;8773;43.300;0.394;2023-03-03T10:28:23;100287.03;;;10.02;53.86
17311;BME280;8773;43.300;0.394;2023-03-03T10:31:02;100287.75;;;10.14;53.49
17311;BME280;8773;43.300;0.394;2023-03-03T10:33:48;100290.69;;;10.01;53.04
17311;BME280;8773;43.300;0.394;2023-03-03T10:36:31;100287.88;;;10.12;51.98
17311;BME280;8773;43.300;0.394;2023-03-03T10:39:12;100279.91;;;10.22;52.68
17311;BME280;8773;43.300;0.394;2023-03-03T10:42:02;100275.66;;;10.58;51.23
17311;BME280;8773;43.300;0.394;2023-03-03T10:44:56;100289.28;;;10.64;51.25
17311;BME280;8773;43.300;0.394;2023-03-03T10:47:53;100277.00;;;10.71;51.17
17311;BME280;8773;43.300;0.394;2023-03-03T10:50:30;100272.59;;;10.99;49.77
17311;BME280;8773;43.300;0.394;2023-03-03T10:53:16;100274.41;;;11.46;49.38
17311;BME280;8773;43.300;0.394;2023-03-03T10:55:55;100280.88;;;11.70;48.55
17311;BME280;8773;43.300;0.394;2023-03-03T10:58:51;100277.34;;;11.52;47.05
17311;BME280;8773;43.300;0.394;2023-03-03T11:01:29;100280.84;;;10.40;49.14
17311;BME280;8773;43.300;0.394;2023-03-03T11:04:22;100280.81;;;10.69;48.81
17311;BME280;8773;43.300;0.394;2023-03-03T11:06:55;100288.09;;;10.76;50.10
17311;BME280;8773;43.300;0.394;2023-03-03T11:10:02;100278.25;;;11.33;48.50
17311;BME280;8773;43.300;0.394;2023-03-03T11:12:40;100283.47;;;11.25;47.91
17311;BME280;8773;43.300;0.394;2023-03-03T11:15:33;100283.44;;;11.62;45.58
17311;BME280;8773;43.300;0.394;2023-03-03T11:18:14;100285.03;;;11.28;45.17
17311;BME280;8773;43.300;0.394;2023-03-03T11:20:52;100292.94;;;10.63;46.89
17311;BME280;8773;43.300;0.394;2023-03-03T11:26:37;100291.72;;;11.04;46.13
17311;BME280;8773;43.300;0.394;2023-03-03T11:29:22;100288.06;;;11.05;45.20
17311;BME280;8773;43.300;0.394;2023-03-03T11:31:54;100292.72;;;10.84;45.08
17311;BME280;8773;43.300;0.394;2023-03-03T11:34:41;100285.41;;;10.96;44.03
17311;BME280;8773;43.300;0.394;2023-03-03T11:37:16;100282.56;;;11.44;45.37
17311;BME280;8773;43.300;0.394;2023-03-03T11:39:49;100281.59;;;11.90;43.86
17311;BME280;8773;43.300;0.394;2023-03-03T11:42:24;100287.50;;;11.66;42.50
17311;BME280;8773;43.300;0.394;2023-03-03T11:44:56;100275.69;;;11.04;43.83
17311;BME280;8773;43.300;0.394;2023-03-03T11:47:30;100282.47;;;10.89;43.69
17311;BME280;8773;43.300;0.394;2023-03-03T11:50:04;100282.06;;;10.74;45.06
17311;BME280;8773;43.300;0.394;2023-03-03T11:52:42;100289.00;;;10.38;46.07
17311;BME280;8773;43.300;0.394;2023-03-03T11:55:18;100282.34;;;10.81;45.33
17311;BME280;8773;43.300;0.394;2023-03-03T11:57:52;100275.38;;;11.07;45.46
17311;BME280;8773;43.300;0.394;2023-03-03T12:00:28;100275.97;;;11.01;44.54
17311;BME280;8773;43.300;0.394;2023-03-03T12:03:15;100280.31;;;11.02;42.81
17311;BME280;8773;43.300;0.394;2023-03-03T12:05:54;100275.16;;;10.91;44.50
17311;BME280;8773;43.300;0.394;2023-03-03T12:08:33;100272.41;;;11.10;44.37
17311;BME280;8773;43.300;0.394;2023-03-03T12:11:07;100271.09;;;11.24;42.71
17311;BME280;8773;43.300;0.394;2023-03-03T12:13:48;100271.41;;;11.12;43.52
17311;BME280;8773;43.300;0.394;2023-03-03T12:16:26;100267.84;;;11.58;44.73
17311;BME280;8773;43.300;0.394;2023-03-03T12:22:02;100267.00;;;12.38;40.67
17311;BME280;8773;43.300;0.394;2023-03-03T12:24:50;100258.91;;;12.30;40.16
17311;BME280;8773;43.300;0.394;2023-03-03T12:27:27;100259.28;;;11.17;42.84
17311;BME280;8773;43.300;0.394;2023-03-03T12:30:10;100236.63;;;11.31;43.96
17311;BME280;8773;43.300;0.394;2023-03-03T12:32:52;100263.47;;;11.84;43.02
17311;BME280;8773;43.300;0.394;2023-03-03T12:35:30;100261.50;;;11.59;41.65
17311;BME280;8773;43.300;0.394;2023-03-03T12:38:08;100257.72;;;10.87;42.65
17311;BME280;8773;43.300;0.394;2023-03-03T12:40:45;100254.63;;;11.56;43.59
17311;BME280;8773;43.300;0.394;2023-03-03T12:43:31;100259.28;;;11.82;41.49
17311;BME280;8773;43.300;0.394;2023-03-03T12:46:06;100254.50;;;11.21;40.80
17311;BME280;8773;43.300;0.394;2023-03-03T12:48:44;100249.09;;;11.40;40.15
17311;BME280;8773;43.300;0.394;2023-03-03T12:51:25;100247.34;;;11.76;41.02
17311;BME280;8773;43.300;0.394;2023-03-03T12:56:55;100238.91;;;11.71;39.92
17311;BME280;8773;43.300;0.394;2023-03-03T12:59:32;100240.66;;;11.62;40.92
17311;BME280;8773;43.300;0.394;2023-03-03T13:02:30;100234.09;;;11.29;41.10
17311;BME280;8773;43.300;0.394;2023-03-03T13:05:10;100234.41;;;11.17;40.61
17311;BME280;8773;43.300;0.394;2023-03-03T13:07:47;100241.69;;;10.87;42.60
17311;BME280;8773;43.300;0.394;2023-03-03T13:10:23;100235.25;;;10.70;43.37
17311;BME280;8773;43.300;0.394;2023-03-03T13:12:59;100242.22;;;10.34;44.25
17311;BME280;8773;43.300;0.394;2023-03-03T13:15:32;100227.63;;;10.29;44.66
17311;BME280;8773;43.300;0.394;2023-03-03T13:18:18;100226.63;;;10.39;45.24
17311;BME280;8773;43.300;0.394;2023-03-03T13:20:58;100226.25;;;10.15;46.02
17311;BME280;8773;43.300;0.394;2023-03-03T13:23:36;100233.25;;;10.06;46.88
17311;BME280;8773;43.300;0.394;2023-03-03T13:26:10;100229.75;;;9.96;46.87
17311;BME280;8773;43.300;0.394;2023-03-03T13:28:56;100239.50;;;9.57;48.22
17311;BME280;8773;43.300;0.394;2023-03-03T13:31:30;100237.38;;;9.51;49.04
17311;BME280;8773;43.300;0.394;2023-03-03T13:34:01;100243.91;;;9.28;49.21
17311;BME280;8773;43.300;0.394;2023-03-03T13:36:35;100236.22;;;9.44;49.05
17311;BME280;8773;43.300;0.394;2023-03-03T13:39:13;100235.38;;;9.34;48.32
17311;BME280;8773;43.300;0.394;2023-03-03T13:41:48;100234.94;;;9.29;48.27
17311;BME280;8773;43.300;0.394;2023-03-03T13:44:25;100242.22;;;9.36;47.29
17311;BME280;8773;43.300;0.394;2023-03-03T13:47:02;100232.84;;;9.32;47.38
17311;BME280;8773;43.300;0.394;2023-03-03T13:49:45;100232.97;;;9.31;47.52
17311;BME280;8773;43.300;0.394;2023-03-03T13:52:20;100233.19;;;8.78;49.23
17311;BME280;8773;43.300;0.394;2023-03-03T13:55:08;100231.66;;;9.16;48.31